MST,Max TemperatureF,Mean TemperatureF,Min TemperatureF,Max Dew PointF,MeanDew PointF,Min DewpointF,Max Humidity, Mean Humidity, Min Humidity, Max Sea Level PressureIn, Mean Sea Level PressureIn, Min Sea Level PressureIn, Max VisibilityMiles, Mean VisibilityMiles, Min VisibilityMiles, Max Wind SpeedMPH, Mean Wind SpeedMPH, Max Gust SpeedMPH,PrecipitationIn, CloudCover, Events, WindDirDegrees
2014-2-1,20,11,2,17,8,-2,96,85,73,30.36,30.11,29.87,10,10,7,20,10,24,0.00,6,,334
2014-2-2,28,15,1,19,10,-2,95,79,63,30.37,30.27,30.14,10,10,10,18,11,22,0.00,1,,214
2014-2-3,24,16,7,18,12,3,92,80,67,30.11,30.03,29.89,10,9,7,17,9,19,0.00,5,,292
2014-2-4,19,8,-4,17,9,-8,92,86,79,30.56,30.10,29.94,10,3,0,28,18,32,0.15,8,Fog-Snow,25
2014-2-5,2,-6,-14,-7,-9,-18,87,80,72,30.78,30.70,30.40,10,10,4,22,9,25,T,4,,332
2014-2-6,5,2,-2,0,-3,-7,87,80,72,30.65,30.45,30.07,10,8,3,17,10,20,T,8,Snow,168
2014-2-7,15,8,0,9,3,-3,95,84,73,30.25,30.07,29.90,10,6,1,17,12,23,T,6,Snow,192
2014-2-8,34,22,10,26,15,7,92,80,68,30.21,30.04,29.95,10,9,6,20,9,23,0.00,2,,81
2014-2-9,16,13,9,15,10,6,92,88,83,30.41,30.20,30.07,9,3,0,16,10,18,0.05,8,Fog-Snow,82
2014-2-10,18,10,1,15,10,1,100,90,80,30.40,30.26,30.11,10,6,1,20,13,22,0.02,8,Snow,172
2014-2-11,36,23,10,29,20,8,92,84,75,30.32,30.16,30.04,10,10,7,20,14,26,0.00,1,,221
2014-2-12,38,31,23,26,23,20,88,74,59,30.21,30.05,29.85,10,10,10,29,14,34,0.00,1,,260
2014-2-13,52,40,28,36,30,23,78,61,44,29.96,29.84,29.76,10,10,10,21,12,26,0.00,0,,262
2014-2-14,45,39,33,32,27,23,96,71,45,30.08,29.99,29.83,10,10,7,32,16,39,T,5,Snow,305
2014-2-15,51,40,29,35,29,23,85,61,36,30.14,29.98,29.78,10,10,10,29,14,34,0.00,1,,289
2014-2-16,59,44,29,35,31,22,85,64,43,30.10,29.85,29.65,10,10,10,35,19,42,0.00,0,,206
2014-2-17,62,46,30,24,16,5,78,44,10,30.11,29.97,29.75,10,10,10,44,18,56,0.00,0,,259
2014-2-18,63,46,29,25,21,16,72,45,17,30.09,29.88,29.72,10,10,10,40,13,47,0.00,0,,296
2014-2-19,58,46,34,33,23,19,69,46,23,29.97,29.67,29.44,10,10,10,37,17,47,0.00,2,,188
2014-2-20,39,32,24,31,20,11,100,66,32,30.03,29.83,29.57,10,7,0,45,22,58,0.08,2,Fog-Snow,321
2014-2-21,53,39,24,23,17,11,69,45,20,29.94,29.90,29.84,10,10,10,29,13,35,0.00,0,,271
2014-2-22,47,33,19,24,21,17,92,65,37,30.12,29.97,29.88,10,10,10,22,11,27,0.00,2,,52
2014-2-23,27,25,22,24,22,20,100,92,84,30.29,30.19,30.07,10,5,0,23,12,26,T,8,Fog,117
2014-2-24,49,31,13,28,19,6,100,71,42,30.42,30.16,29.97,10,10,9,35,19,42,0.00,6,,156
2014-2-25,18,9,-1,9,5,-3,92,74,56,30.58,30.38,30.17,10,8,1,20,11,23,0.07,6,Snow,13
2014-2-26,44,21,-3,23,10,-3,95,62,29,30.52,30.22,30.07,10,10,10,21,11,25,0.00,0,,264
2014-2-27,56,36,15,23,16,10,80,52,23,30.04,29.77,29.55,10,10,10,33,16,40,0.00,2,,171
2014-2-28,58,39,20,33,23,17,92,66,40,30.04,29.81,29.55,10,10,5,32,13,40,0.00,5,,18